Time;durP1;ratioP1;P1;durP2;ratioP2;P2;SDS_P1;SDS_P2;PMS_P1;PMS_P2;Temp;Humidity;BMP_temperature;BMP_pressure;BME280_temperature;BME280_humidity;BME280_pressure;Samples;Min_cycle;Max_cycle;Signal;HPM_P1;HPM_P2
2021/08/20 00:02:05;;;;;;;;;3.00;3.00;;;;;19.33;53.64;100976.25;5037605;28;48648;-87
2021/08/20 00:04:31;;;;;;;;;5.00;4.00;;;;;19.12;53.30;100944.75;5039034;28;47302;-86
2021/08/20 00:06:56;;;;;;;;;3.00;2.50;;;;;19.09;53.79;100930.94;5058373;28;45723;-86
2021/08/20 00:09:22;;;;;;;;;5.50;3.25;;;;;19.23;54.05;100955.13;5058556;28;45733;-86
2021/08/20 00:15:10;;;;;;;;;3.25;3.25;;;;;19.29;53.68;100970.44;5056259;28;45717;-86
2021/08/20 00:17:35;;;;;;;;;2.00;2.00;;;;;19.14;53.76;100942.78;5057615;28;45746;-84
2021/08/20 00:20:01;;;;;;;;;3.50;3.50;;;;;19.23;54.19;100954.28;5058203;28;45718;-85
2021/08/20 00:22:27;;;;;;;;;4.00;3.75;;;;;19.19;53.68;100943.13;5056119;28;46675;-85
2021/08/20 00:24:53;;;;;;;;;5.25;4.50;;;;;19.27;53.76;100964.44;5071542;28;48268;-85
2021/08/20 00:27:19;;;;;;;;;3.75;3.00;;;;;19.36;53.80;100978.63;5056410;28;45645;-85
2021/08/20 00:29:44;;;;;;;;;2.75;2.75;;;;;19.18;54.37;100944.13;5038327;28;46062;-85
2021/08/20 00:32:10;;;;;;;;;4.25;4.00;;;;;19.18;54.45;100941.47;5055907;28;45615;-85
2021/08/20 00:34:35;;;;;;;;;3.75;3.50;;;;;19.06;54.15;100923.28;5071821;28;46025;-85
2021/08/20 00:37:01;;;;;;;;;2.75;2.50;;;;;19.26;54.06;100959.31;5038262;28;45664;-85
2021/08/20 00:39:26;;;;;;;;;3.75;3.00;;;;;19.09;53.82;100923.00;5038171;28;46109;-85
2021/08/20 00:45:14;;;;;;;;;2.50;2.00;;;;;19.23;53.97;100947.16;5057096;28;45958;-85
2021/08/20 00:47:40;;;;;;;;;3.25;3.00;;;;;19.22;54.21;100953.44;5058690;28;45604;-87
2021/08/20 00:50:08;;;;;;;;;2.50;2.50;;;;;19.29;54.50;100965.13;5059933;28;45681;-87
2021/08/20 00:52:34;;;;;;;;;2.75;2.50;;;;;19.32;54.26;100969.31;5041983;28;47948;-87
2021/08/20 00:55:00;;;;;;;;;3.00;2.75;;;;;19.31;54.20;100969.44;5039327;28;46515;-86
2021/08/20 00:57:26;;;;;;;;;4.50;3.75;;;;;19.29;54.62;100966.94;5056744;28;45692;-86
2021/08/20 00:59:52;;;;;;;;;4.00;4.00;;;;;19.10;54.41;100928.16;5056192;28;45656;-84
2021/08/20 01:02:17;;;;;;;;;4.75;4.00;;;;;19.33;54.66;100967.44;5037226;28;47388;-85
2021/08/20 01:04:43;;;;;;;;;3.75;3.00;;;;;19.33;54.49;100960.31;5037385;28;48257;-85
2021/08/20 01:07:09;;;;;;;;;3.00;3.00;;;;;19.16;54.21;100924.84;5037119;28;45673;-86
2021/08/20 01:09:40;;;;;;;;;3.00;3.00;;;;;18.95;54.56;100883.72;5037607;28;45748;-87
2021/08/20 01:15:28;;;;;;;;;1.75;1.75;;;;;19.19;54.50;100921.88;5055627;28;45784;-86
2021/08/20 01:17:53;;;;;;;;;4.25;4.00;;;;;19.40;54.61;100955.22;5055932;28;45704;-86
2021/08/20 01:20:19;;;;;;;;;3.25;2.50;;;;;19.21;54.80;100922.56;5071357;28;45663;-87
2021/08/20 01:22:44;;;;;;;;;2.50;2.50;;;;;19.10;54.52;100895.44;5057037;28;46368;-86
2021/08/20 01:25:10;;;;;;;;;2.75;1.75;;;;;19.32;54.32;100928.63;5058719;28;46368;-87
2021/08/20 01:27:36;;;;;;;;;5.00;2.50;;;;;19.29;54.66;100925.25;5057898;28;45680;-85
2021/08/20 01:30:05;;;;;;;;;3.00;2.50;;;;;19.29;54.65;100925.25;5039349;28;45667;-86
2021/08/20 01:32:31;;;;;;;;;2.50;2.50;;;;;19.44;54.43;100943.28;5055988;28;45625;-85
2021/08/20 01:34:56;;;;;;;;;4.00;3.25;;;;;19.34;54.73;100927.44;5037288;28;46219;-87
2021/08/20 01:37:22;;;;;;;;;3.25;3.25;;;;;19.29;54.79;100919.94;5056330;28;45637;-87
2021/08/20 01:39:48;;;;;;;;;2.75;2.75;;;;;19.39;54.91;100927.81;5037269;28;45670;-87
2021/08/20 01:45:36;;;;;;;;;4.00;4.00;;;;;19.50;54.95;100932.03;5061969;28;45812;-87
2021/08/20 01:48:03;;;;;;;;;4.25;3.25;;;;;19.37;54.89;100919.19;5062644;28;45850;-86
2021/08/20 01:50:29;;;;;;;;;3.75;3.00;;;;;19.33;54.71;100909.84;5044136;28;45844;-86
2021/08/20 01:52:54;;;;;;;;;3.25;2.75;;;;;19.39;54.61;100919.84;5058974;28;45855;-87
2021/08/20 01:55:20;;;;;;;;;2.25;2.25;;;;;19.46;54.98;100922.72;5054885;28;45535;-86
2021/08/20 02:01:07;;;;;;;;;3.00;3.00;;;;;19.38;54.75;100896.09;5054779;28;45590;-85
2021/08/20 02:03:32;;;;;;;;;1.75;1.75;;;;;19.52;54.77;100920.28;5036803;28;48753;-87
2021/08/20 02:05:58;;;;;;;;;2.00;1.75;;;;;19.54;54.90;100920.94;5036957;28;48134;-86
2021/08/20 02:08:23;;;;;;;;;3.50;3.25;;;;;19.06;54.89;100825.00;5036254;28;46008;-86
2021/08/20 02:10:49;;;;;;;;;4.25;3.50;;;;;19.33;55.13;100869.13;5036341;28;45558;-86
2021/08/20 02:13:14;;;;;;;;;3.75;3.00;;;;;19.34;54.91;100861.00;5054887;28;46479;-86
2021/08/20 02:15:39;;;;;;;;;2.00;2.00;;;;;19.46;54.98;100880.22;5070059;28;47169;-85
2021/08/20 02:18:05;;;;;;;;;1.75;1.75;;;;;19.15;55.17;100845.34;5036381;28;45874;-85
2021/08/20 02:20:30;;;;;;;;;3.25;3.25;;;;;19.34;54.96;100876.97;5038681;28;45536;-86
2021/08/20 02:22:56;;;;;;;;;2.75;2.75;;;;;19.57;55.08;100915.31;5069587;28;48211;-86
2021/08/20 02:25:21;;;;;;;;;3.00;2.50;;;;;19.39;55.13;100892.41;5057133;28;46269;-86
2021/08/20 02:31:21;;;;;;;;;4.25;2.75;;;;;19.17;55.26;100864.56;5056226;28;45808;-85
2021/08/20 02:33:49;;;;;;;;;2.50;2.25;;;;;19.43;55.16;100915.88;5039608;28;47336;-86
2021/08/20 02:36:15;;;;;;;;;2.75;2.25;;;;;19.32;55.50;100894.06;5039573;28;48553;-86
2021/08/20 02:38:40;;;;;;;;;3.00;2.67;;;;;19.11;55.28;100854.63;5057822;28;45787;-85
2021/08/20 02:41:06;;;;;;;;;2.75;2.75;;;;;19.26;55.65;100890.22;5058027;28;45554;-85
2021/08/20 02:43:31;;;;;;;;;2.75;2.75;;;;;19.24;55.78;100897.50;5073566;28;47209;-85
2021/08/20 02:45:57;;;;;;;;;2.50;2.50;;;;;19.12;55.42;100885.47;5058089;28;45698;-85
2021/08/20 02:48:23;;;;;;;;;3.75;3.00;;;;;19.13;55.81;100874.69;5057673;28;45558;-85
2021/08/20 02:50:49;;;;;;;;;3.75;2.75;;;;;19.28;55.52;100912.13;5058244;28;45709;-84
2021/08/20 02:53:15;;;;;;;;;6.00;4.00;;;;;19.33;55.86;100925.78;5057776;28;46405;-84
2021/08/20 02:55:40;;;;;;;;;4.25;4.00;;;;;19.11;55.74;100891.81;5073450;28;46504;-88
2021/08/20 03:01:28;;;;;;;;;2.75;2.75;;;;;19.10;56.15;100901.59;5081518;28;45564;-85
2021/08/20 03:03:53;;;;;;;;;4.00;3.00;;;;;19.20;56.19;100912.94;5062984;28;47437;-86
2021/08/20 03:06:19;;;;;;;;;3.25;3.25;;;;;19.25;56.00;100918.59;5098011;28;47833;-87
2021/08/20 03:08:44;;;;;;;;;3.75;3.75;;;;;18.89;55.94;100863.94;5054423;28;45699;-86
2021/08/20 03:11:10;;;;;;;;;3.50;3.50;;;;;19.00;55.99;100874.28;5044965;28;45592;-86
2021/08/20 03:13:35;;;;;;;;;4.00;3.25;;;;;19.08;55.94;100895.59;5061506;28;45658;-87
2021/08/20 03:16:01;;;;;;;;;3.50;3.50;;;;;19.02;56.18;100882.09;5043074;28;47280;-88
2021/08/20 03:18:26;;;;;;;;;4.75;4.00;;;;;18.84;56.13;100853.75;5061241;28;45545;-88
2021/08/20 03:20:52;;;;;;;;;2.00;2.00;;;;;19.08;55.80;100884.97;5042996;28;45905;-87
2021/08/20 03:23:17;;;;;;;;;3.00;3.00;;;;;19.02;55.96;100872.31;5043114;28;48436;-89
2021/08/20 03:25:43;;;;;;;;;4.00;2.75;;;;;19.31;56.34;100921.63;5041148;28;47433;-88
2021/08/20 03:31:30;;;;;;;;;4.00;4.00;;;;;19.33;56.24;100901.03;5056626;28;45747;-87
2021/08/20 03:33:56;;;;;;;;;2.75;2.75;;;;;19.24;56.18;100881.56;5039009;28;48545;-86
2021/08/20 03:36:23;;;;;;;;;3.00;3.00;;;;;19.04;56.22;100848.25;5045330;28;47107;-87
2021/08/20 03:38:50;;;;;;;;;3.50;3.50;;;;;18.97;56.09;100836.59;5063565;28;45708;-86
2021/08/20 03:41:19;;;;;;;;;3.00;3.00;;;;;19.37;56.00;100902.41;5058460;28;45802;-86
2021/08/20 03:43:45;;;;;;;;;2.25;2.25;;;;;19.38;55.75;100906.72;5040290;28;48641;-85
2021/08/20 03:46:12;;;;;;;;;3.50;3.50;;;;;19.28;56.20;100898.84;5072795;28;47009;-85
2021/08/20 03:48:37;;;;;;;;;2.00;2.00;;;;;19.08;55.87;100873.50;5057615;28;45633;-87
2021/08/20 03:51:03;;;;;;;;;4.75;3.25;;;;;19.06;56.31;100856.88;5039438;28;45683;-87
2021/08/20 03:53:29;;;;;;;;;5.00;4.00;;;;;19.43;56.07;100921.22;5039307;28;47445;-88
2021/08/20 03:55:54;;;;;;;;;3.50;3.50;;;;;19.38;56.19;100904.06;5039214;28;48220;-88
2021/08/20 04:01:41;;;;;;;;;2.00;2.00;;;;;19.34;56.35;100900.88;5057113;28;45647;-87
2021/08/20 04:04:07;;;;;;;;;5.00;3.75;;;;;19.18;56.42;100879.53;5038779;28;47513;-86
2021/08/20 04:06:32;;;;;;;;;2.00;2.00;;;;;19.15;56.39;100874.56;5038715;28;46173;-87
2021/08/20 04:08:58;;;;;;;;;3.00;2.50;;;;;19.47;56.11;100932.38;5071882;28;45581;-86
2021/08/20 04:11:23;;;;;;;;;2.25;2.00;;;;;19.43;55.84;100923.88;5072169;28;45886;-86
2021/08/20 04:13:48;;;;;;;;;4.00;2.75;;;;;19.47;56.49;100938.53;5056466;28;46294;-85
2021/08/20 04:16:14;;;;;;;;;3.00;2.50;;;;;19.47;56.45;100925.25;5056524;28;45684;-85
2021/08/20 04:18:40;;;;;;;;;4.25;2.75;;;;;19.32;56.36;100902.88;5071978;28;45614;-85
2021/08/20 04:21:07;;;;;;;;;2.75;2.75;;;;;19.36;56.48;100917.50;5038332;28;45859;-85
2021/08/20 04:23:33;;;;;;;;;4.00;3.75;;;;;19.29;56.36;100909.31;5037927;28;47580;-85
2021/08/20 04:25:58;;;;;;;;;2.75;2.00;;;;;19.41;56.57;100928.50;5056412;28;46262;-85
2021/08/20 04:31:46;;;;;;;;;2.75;2.75;;;;;19.35;56.52;100917.66;5055710;28;45667;-86
2021/08/20 04:34:12;;;;;;;;;3.00;3.00;;;;;19.49;56.58;100939.19;5038290;28;47668;-86
2021/08/20 04:36:37;;;;;;;;;2.50;2.50;;;;;19.02;56.26;100851.06;5057310;28;46481;-86
2021/08/20 04:39:04;;;;;;;;;3.50;3.00;;;;;19.42;56.12;100918.69;5038946;28;45558;-85
2021/08/20 04:47:53;;;;;;;;;3.50;3.50;;;;;19.49;56.49;100941.84;5055963;28;45467;-85
2021/08/20 04:50:20;;;;;;;;;2.75;2.25;;;;;19.53;56.44;100950.34;5056520;28;45731;-85
2021/08/20 04:52:45;;;;;;;;;2.00;2.00;;;;;19.52;56.76;100946.84;5057129;28;45665;-83
2021/08/20 04:55:11;;;;;;;;;4.50;3.25;;;;;19.46;56.21;100934.19;5057682;28;45714;-82
2021/08/20 04:57:36;;;;;;;;;4.25;3.50;;;;;19.40;56.17;100918.00;5041534;28;46974;-86
2021/08/20 05:00:05;;;;;;;;;3.00;3.00;;;;;19.32;56.19;100910.84;5077646;28;45598;-83
2021/08/20 05:02:34;;;;;;;;;4.50;2.50;;;;;19.44;56.69;100924.66;5075208;28;45898;-85
2021/08/20 05:05:00;;;;;;;;;6.75;3.00;;;;;19.50;56.63;100940.84;5040262;28;46639;-84
2021/08/20 05:07:25;;;;;;;;;3.50;3.50;;;;;19.50;56.74;100942.69;5058092;28;46218;-84
2021/08/20 05:09:51;;;;;;;;;4.00;3.75;;;;;19.35;56.38;100912.34;5061883;28;45848;-84
2021/08/20 05:12:17;;;;;;;;;2.00;2.00;;;;;19.51;56.50;100939.88;5044495;28;45572;-85
2021/08/20 05:14:42;;;;;;;;;4.00;4.00;;;;;19.24;56.46;100886.88;5077345;28;47000;-86
2021/08/20 05:17:08;;;;;;;;;4.50;3.75;;;;;19.55;56.21;100935.06;5040751;28;46879;-86
2021/08/20 05:19:33;;;;;;;;;4.50;4.00;;;;;19.38;56.28;100920.81;5075267;28;45707;-86
2021/08/20 05:21:58;;;;;;;;;5.50;5.00;;;;;19.23;56.46;100886.03;5041874;28;45552;-87
2021/08/20 05:24:24;;;;;;;;;3.00;2.75;;;;;19.41;56.78;100917.84;5042298;28;47427;-86
2021/08/20 05:26:49;;;;;;;;;3.25;3.25;;;;;19.67;56.74;100961.22;5043647;28;47394;-87
2021/08/20 05:29:15;;;;;;;;;3.50;3.50;;;;;19.67;56.88;100971.84;5077590;28;45688;-87
2021/08/20 05:31:40;;;;;;;;;3.75;3.75;;;;;19.27;56.22;100892.69;5043709;28;45841;-87
2021/08/20 05:34:05;;;;;;;;;3.00;2.75;;;;;19.58;56.41;100943.56;5061518;28;46198;-88
2021/08/20 05:36:31;;;;;;;;;3.75;2.75;;;;;19.32;56.49;100902.88;5042104;28;47315;-87
2021/08/20 05:38:56;;;;;;;;;5.50;3.75;;;;;19.45;56.28;100918.41;5040938;28;45928;-87
2021/08/20 05:41:22;;;;;;;;;4.00;4.00;;;;;19.41;56.34;100909.88;5040798;28;45532;-87
2021/08/20 05:47:09;;;;;;;;;5.00;5.00;;;;;19.74;56.53;100965.91;5059781;28;45969;-88
2021/08/20 05:49:34;;;;;;;;;3.50;3.00;;;;;19.73;56.73;100970.38;5042946;28;46205;-87
2021/08/20 05:52:00;;;;;;;;;4.00;4.00;;;;;19.73;56.90;100970.38;5041912;28;45631;-86
2021/08/20 05:54:25;;;;;;;;;3.50;3.50;;;;;19.72;56.46;100974.03;5042431;28;47411;-85
2021/08/20 05:56:51;;;;;;;;;4.25;4.25;;;;;19.29;56.60;100903.16;5054326;28;47433;-86
2021/08/20 06:02:41;;;;;;;;;5.50;4.50;;;;;19.63;56.54;100961.69;5070878;28;45641;-85
2021/08/20 06:05:07;;;;;;;;;3.50;3.50;;;;;19.53;56.46;100943.22;5051512;28;47730;-85
2021/08/20 06:07:32;;;;;;;;;3.00;2.75;;;;;19.47;56.84;100930.56;5069987;28;46302;-85
2021/08/20 06:09:58;;;;;;;;;3.00;3.00;;;;;19.55;56.73;100946.53;5050682;28;45683;-85
2021/08/20 06:12:24;;;;;;;;;3.25;3.25;;;;;19.71;56.69;100980.31;5077541;28;45608;-86
2021/08/20 06:14:49;;;;;;;;;3.50;3.50;;;;;19.41;56.66;100932.97;5075096;28;45452;-86
2021/08/20 06:17:15;;;;;;;;;4.50;4.50;;;;;19.73;57.05;100980.19;5076792;28;45238;-85
2021/08/20 06:19:40;;;;;;;;;3.75;3.00;;;;;19.49;56.71;100935.69;5055354;28;44916;-84
2021/08/20 06:22:06;;;;;;;;;3.50;3.50;;;;;19.64;56.78;100955.38;5073280;28;45575;-85
2021/08/20 06:24:31;;;;;;;;;2.00;2.00;;;;;19.46;56.51;100930.69;5070791;28;45701;-84
2021/08/20 06:26:57;;;;;;;;;3.25;2.75;;;;;19.78;56.94;100977.88;5053195;28;46042;-85
2021/08/20 06:32:44;;;;;;;;;4.50;3.75;;;;;19.66;56.77;100954.22;5058275;28;45797;-84
2021/08/20 06:35:10;;;;;;;;;3.00;3.00;;;;;19.74;56.51;100961.41;5038056;28;46628;-84
2021/08/20 06:37:35;;;;;;;;;4.00;3.75;;;;;19.39;56.90;100906.53;5037340;28;47373;-86
2021/08/20 06:40:02;;;;;;;;;3.25;3.25;;;;;19.63;56.97;100951.91;5055356;28;45619;-85
2021/08/20 06:42:28;;;;;;;;;6.00;4.75;;;;;19.72;56.63;100960.72;5036437;28;45753;-86
2021/08/20 06:44:53;;;;;;;;;3.50;3.50;;;;;19.49;56.63;100911.75;5036086;28;48392;-86
2021/08/20 06:47:19;;;;;;;;;4.00;3.00;;;;;19.80;56.84;100963.44;5054108;28;46742;-85
2021/08/20 06:49:44;;;;;;;;;3.25;3.00;;;;;19.84;56.79;100971.91;5054875;28;45546;-86
2021/08/20 06:52:10;;;;;;;;;5.00;3.75;;;;;19.69;56.96;100937.97;5069773;28;46079;-85
2021/08/20 06:54:36;;;;;;;;;5.00;5.00;;;;;19.73;57.05;100938.47;5037094;28;47472;-84
2021/08/20 06:57:01;;;;;;;;;6.75;6.25;;;;;19.70;56.70;100930.81;5071419;28;47108;-86
2021/08/20 07:02:49;;;;;;;;;4.50;4.50;;;;;19.88;57.02;100958.13;5058042;28;45700;-85
2021/08/20 07:05:15;;;;;;;;;4.00;4.00;;;;;19.89;57.00;100958.97;5058789;28;45618;-87
2021/08/20 07:07:41;;;;;;;;;5.00;4.00;;;;;20.05;57.04;100980.31;5044312;28;47796;-82
2021/08/20 07:10:12;;;;;;;;;5.25;4.50;;;;;20.07;56.98;100976.50;5059684;28;45514;-86
2021/08/20 07:12:38;;;;;;;;;4.00;4.00;;;;;20.10;56.83;100991.31;5060385;28;45676;-87
2021/08/20 07:15:06;;;;;;;;;6.25;5.00;;;;;19.97;56.95;100961.69;5058671;28;45754;-85
2021/08/20 07:17:32;;;;;;;;;4.25;4.00;;;;;20.15;56.85;100990.81;5057927;28;46494;-85
2021/08/20 07:19:59;;;;;;;;;5.50;4.00;;;;;20.01;56.78;100968.34;5039305;28;45569;-84
2021/08/20 07:22:24;;;;;;;;;6.00;4.00;;;;;20.09;56.84;100977.16;5038420;28;45557;-84
2021/08/20 07:24:49;;;;;;;;;6.50;5.00;;;;;20.18;56.96;100994.00;5057028;28;45538;-85
2021/08/20 07:27:15;;;;;;;;;6.25;5.25;;;;;20.19;56.78;100986.84;5059534;28;45707;-85
2021/08/20 07:33:02;;;;;;;;;5.00;5.00;;;;;20.10;57.00;100973.50;5064331;28;45556;-83
2021/08/20 07:35:28;;;;;;;;;4.50;4.00;;;;;19.96;56.79;100944.88;5064729;28;45486;-84
2021/08/20 07:37:53;;;;;;;;;5.25;4.25;;;;;20.25;56.73;100992.34;5078017;28;46959;-88
2021/08/20 07:40:19;;;;;;;;;7.50;5.00;;;;;20.00;56.82;100948.03;5039288;28;45710;-86
2021/08/20 07:42:44;;;;;;;;;6.75;5.00;;;;;20.17;56.87;100973.72;5057361;28;45522;-86
2021/08/20 07:45:10;;;;;;;;;6.00;5.50;;;;;20.27;56.92;100995.69;5039135;28;47675;-87
2021/08/20 07:47:43;;;;;;;;;5.50;5.00;;;;;20.28;56.65;100985.88;5073726;28;46233;-85
2021/08/20 07:50:08;;;;;;;;;6.25;6.00;;;;;20.13;56.83;100963.56;5057173;28;45564;-84
2021/08/20 07:52:34;;;;;;;;;6.00;4.75;;;;;20.42;56.75;101002.06;5057690;28;45732;-85
2021/08/20 07:54:59;;;;;;;;;5.25;4.25;;;;;20.36;56.61;100999.22;5058216;28;45530;-85
2021/08/20 07:57:24;;;;;;;;;5.00;4.25;;;;;20.26;56.77;100967.41;5056578;28;45507;-83
2021/08/20 08:03:11;;;;;;;;;5.00;4.50;;;;;20.57;56.70;101012.09;5056110;28;45475;-84
2021/08/20 08:05:37;;;;;;;;;5.25;4.75;;;;;20.49;56.61;100996.94;5056018;28;46701;-84
2021/08/20 08:08:02;;;;;;;;;5.00;5.00;;;;;20.55;56.82;100998.09;5071202;28;48186;-83
2021/08/20 08:10:28;;;;;;;;;5.25;5.25;;;;;20.64;56.58;101015.75;5055922;28;45528;-80
2021/08/20 08:12:54;;;;;;;;;5.25;5.25;;;;;20.58;56.59;100998.59;5056125;28;45584;-83
2021/08/20 08:15:21;;;;;;;;;5.00;4.00;;;;;20.69;56.55;101022.25;5056346;28;45495;-81
2021/08/20 08:17:47;;;;;;;;;6.00;5.50;;;;;20.70;56.47;101018.59;5037957;28;46559;-81
2021/08/20 08:20:16;;;;;;;;;8.25;6.00;;;;;20.73;56.32;101018.25;5055982;28;45567;-82
2021/08/20 08:22:42;;;;;;;;;5.50;5.00;;;;;20.51;56.29;100984.31;5055914;28;45733;-81
2021/08/20 08:25:08;;;;;;;;;6.00;6.00;;;;;20.78;56.42;101021.25;5055763;28;46528;-84
2021/08/20 08:34:01;;;;;;;;;8.00;6.00;;;;;20.77;56.11;101018.78;5055393;28;45688;-85
2021/08/20 08:36:30;;;;;;;;;4.00;3.00;;;;;20.88;56.56;101032.63;5056056;28;45560;-81
2021/08/20 08:38:56;;;;;;;;;7.50;7.00;;;;;20.91;56.23;101032.28;5056141;28;45969;-86
2021/08/20 08:41:22;;;;;;;;;6.00;5.75;;;;;20.96;56.16;101034.44;5036904;28;45697;-85
2021/08/20 08:43:47;;;;;;;;;6.25;5.50;;;;;20.83;56.59;101010.97;5058779;28;45809;-83
2021/08/20 08:46:18;;;;;;;;;5.50;5.00;;;;;21.02;56.24;101040.94;5056487;28;45616;-84
2021/08/20 08:48:44;;;;;;;;;6.25;5.75;;;;;20.98;56.33;101028.94;5057045;28;46085;-79
2021/08/20 08:51:11;;;;;;;;;8.00;7.00;;;;;21.05;56.12;101032.63;5037433;28;45652;-84
2021/08/20 08:53:37;;;;;;;;;7.25;7.00;;;;;21.05;56.21;101036.13;5055994;28;45578;-80
2021/08/20 08:56:03;;;;;;;;;9.50;7.00;;;;;21.13;56.08;101040.59;5056158;28;45597;-84
2021/08/20 08:58:28;;;;;;;;;6.50;6.50;;;;;21.19;55.98;101037.31;5055982;28;46238;-82
2021/08/20 09:00:53;;;;;;;;;8.00;7.00;;;;;21.19;55.95;101037.31;5056235;28;45658;-83
2021/08/20 09:03:37;;;;;;;;;7.00;6.25;;;;;21.22;56.05;101031.63;5038717;28;45610;-84
2021/08/20 09:06:02;;;;;;;;;5.50;5.50;;;;;21.26;56.01;101038.31;5055928;28;46573;-82
2021/08/20 09:08:28;;;;;;;;;7.25;7.00;;;;;21.31;55.81;101043.97;5058959;28;46200;-85
2021/08/20 09:10:58;;;;;;;;;8.75;8.25;;;;;21.36;56.08;101044.28;5058665;28;45547;-84
2021/08/20 09:13:25;;;;;;;;;9.00;7.00;;;;;21.27;55.73;101024.78;5074265;28;45528;-84
2021/08/20 09:16:13;;;;;;;;;7.00;6.75;;;;;21.48;56.02;101042.13;5057267;28;45757;-82
2021/08/20 09:18:39;;;;;;;;;6.50;6.50;;;;;21.53;55.75;101042.44;5040579;28;48497;-85
2021/08/20 09:21:05;;;;;;;;;6.00;5.75;;;;;21.58;55.89;101046.28;5039295;28;45671;-84
2021/08/20 09:23:31;;;;;;;;;5.00;5.00;;;;;21.62;56.02;101034.25;5076071;28;45854;-84
2021/08/20 09:25:58;;;;;;;;;5.75;5.25;;;;;21.61;55.23;101023.75;5063827;28;46482;-85
2021/08/20 09:28:27;;;;;;;;;7.00;6.00;;;;;21.65;55.77;101023.22;5064692;28;46270;-84
2021/08/20 09:31:02;;;;;;;;;4.75;4.25;;;;;21.76;55.04;101032.69;5063525;28;45677;-85
2021/08/20 09:33:48;;;;;;;;;6.00;5.00;;;;;21.80;55.59;101023.38;5044322;28;45807;-87
2021/08/20 09:36:21;;;;;;;;;6.50;5.00;;;;;21.39;55.78;100955.97;5056439;28;46337;-85
2021/08/20 09:38:51;;;;;;;;;8.00;5.25;;;;;21.76;55.52;100998.03;5071278;28;47607;-85
2021/08/20 09:41:25;;;;;;;;;6.00;5.25;;;;;21.78;54.99;100999.53;5036448;28;45768;-86
2021/08/20 09:44:00;;;;;;;;;6.75;5.75;;;;;21.89;55.13;101019.66;5036995;28;45493;-85
2021/08/20 09:46:37;;;;;;;;;4.00;4.00;;;;;21.64;55.06;100962.91;5038162;28;47525;-86
2021/08/20 09:49:03;;;;;;;;;6.00;5.50;;;;;21.96;55.15;101012.69;5038160;28;48177;-86
2021/08/20 09:51:45;;;;;;;;;5.25;5.00;;;;;22.12;54.57;101028.63;5036355;28;45801;-86
2021/08/20 09:54:23;;;;;;;;;6.00;6.00;;;;;22.15;54.86;101027.44;5055146;28;45512;-87
2021/08/20 09:56:48;;;;;;;;;7.00;6.00;;;;;21.90;55.06;100983.16;5038102;28;46423;-86
2021/08/20 09:59:15;;;;;;;;;4.75;4.75;;;;;22.23;54.88;101040.75;5058589;28;45709;-86
2021/08/20 10:01:43;;;;;;;;;5.00;5.00;;;;;22.15;54.26;101022.09;5057262;28;45692;-85
2021/08/20 10:04:11;;;;;;;;;5.75;4.75;;;;;22.27;54.55;101030.56;5078411;28;45653;-86
2021/08/20 10:06:39;;;;;;;;;5.25;5.25;;;;;22.24;54.27;101015.69;5075431;28;45581;-87
2021/08/20 10:09:08;;;;;;;;;4.00;4.00;;;;;22.34;54.12;101024.34;5056313;28;47179;-86
2021/08/20 10:11:55;;;;;;;;;5.00;4.25;;;;;22.14;54.14;100988.38;5055513;28;45697;-85
2021/08/20 10:14:24;;;;;;;;;4.50;3.00;;;;;22.53;53.79;101037.25;5047911;28;45522;-87
2021/08/20 10:16:49;;;;;;;;;4.50;4.00;;;;;22.46;53.92;101019.41;5041349;28;46415;-87
2021/08/20 10:19:15;;;;;;;;;3.00;3.00;;;;;22.52;54.11;101022.22;5075553;28;47805;-85
2021/08/20 10:21:42;;;;;;;;;2.00;2.00;;;;;22.58;53.73;101026.88;5057797;28;45526;-87
2021/08/20 10:24:11;;;;;;;;;4.25;4.00;;;;;22.75;53.46;101038.31;5075636;28;45633;-86
2021/08/20 10:26:44;;;;;;;;;4.00;3.25;;;;;22.55;53.31;101000.53;5043995;28;47709;-85
2021/08/20 10:29:11;;;;;;;;;4.00;4.00;;;;;22.72;53.29;101027.16;5043243;28;47338;-86
2021/08/20 10:31:37;;;;;;;;;4.00;4.00;;;;;22.77;52.79;101028.28;5078217;28;45648;-86
2021/08/20 10:34:47;;;;;;;;;3.75;3.00;;;;;22.96;53.38;101049.19;5062922;28;45623;-87
2021/08/20 10:37:14;;;;;;;;;3.75;3.50;;;;;23.02;52.67;101047.63;5045672;28;47465;-85
2021/08/20 10:39:42;;;;;;;;;4.00;3.00;;;;;22.73;52.75;100988.72;5044875;28;47283;-86
2021/08/20 10:42:13;;;;;;;;;2.50;2.25;;;;;23.13;52.86;101046.38;5078759;28;45681;-87
2021/08/20 10:44:44;;;;;;;;;2.75;2.00;;;;;23.18;51.84;101044.81;5041462;28;45863;-86
2021/08/20 10:47:24;;;;;;;;;2.00;2.00;;;;;23.20;52.26;101041.97;5086781;28;47761;-85
2021/08/20 10:49:51;;;;;;;;;1.25;1.25;;;;;23.24;52.18;101040.59;5057099;28;47401;-86
2021/08/20 10:52:28;;;;;;;;;3.00;3.00;;;;;23.19;51.16;101025.09;5053055;28;45575;-84
2021/08/20 10:54:54;;;;;;;;;2.50;2.00;;;;;23.21;51.20;101015.03;5048547;28;45554;-86
2021/08/20 10:57:39;;;;;;;;;1.75;1.25;;;;;23.36;50.92;101028.47;5080444;28;47039;-86
2021/08/20 11:00:06;;;;;;;;;1.75;1.75;;;;;23.39;50.78;101028.91;5064916;28;45903;-86
2021/08/20 11:02:31;;;;;;;;;2.00;2.00;;;;;23.35;50.85;101021.44;5050120;28;45705;-85
2021/08/20 11:05:04;;;;;;;;;2.00;2.00;;;;;23.49;50.56;101036.72;5087456;28;45660;-87
2021/08/20 11:07:38;;;;;;;;;3.25;3.00;;;;;23.55;50.91;101032.47;5074114;28;45651;-88
2021/08/20 11:10:10;;;;;;;;;2.00;2.00;;;;;23.63;50.71;101035.91;5095381;28;47367;-87
2021/08/20 11:12:47;;;;;;;;;2.00;2.00;;;;;23.70;50.70;101035.97;5095646;28;45423;-87
2021/08/20 11:15:19;;;;;;;;;3.50;2.75;;;;;23.74;50.28;101032.78;5095361;28;45214;-89
2021/08/20 11:17:53;;;;;;;;;1.75;1.50;;;;;23.76;49.93;101030.72;5095687;28;47502;-88
2021/08/20 11:20:38;;;;;;;;;2.00;2.00;;;;;23.81;50.01;101035.53;5084382;28;47253;-88
2021/08/20 11:25:39;;;;;;;;;2.00;2.00;;;;;23.66;49.69;100991.88;5079597;28;45163;-90
2021/08/20 11:28:44;;;;;;;;;1.00;1.00;;;;;23.82;49.59;101010.44;5059646;28;48597;-87
2021/08/20 11:31:14;;;;;;;;;1.00;1.00;;;;;23.70;49.87;100977.94;5015246;28;46800;-87
2021/08/20 11:33:40;;;;;;;;;2.00;2.00;;;;;23.86;49.49;100997.53;5012865;28;45151;-89
2021/08/20 11:36:13;;;;;;;;;2.00;2.00;;;;;24.12;49.62;101024.63;5011441;28;45676;-88
2021/08/20 11:38:42;;;;;;;;;2.00;2.00;;;;;24.04;49.22;101009.50;4993139;28;46671;-88
2021/08/20 11:41:12;;;;;;;;;1.00;1.00;;;;;24.06;48.71;101003.97;5008823;28;45666;-89
2021/08/20 11:43:45;;;;;;;;;2.00;2.00;;;;;24.24;48.55;101033.84;4994507;28;45616;-87
2021/08/20 11:46:10;;;;;;;;;3.00;2.50;;;;;23.98;48.75;100986.13;4999688;28;45638;-88
2021/08/20 11:48:44;;;;;;;;;2.75;2.00;;;;;24.27;48.50;101020.13;4999762;28;47612;-89
2021/08/20 11:51:11;;;;;;;;;2.00;2.00;;;;;24.28;48.52;101026.31;4998844;28;47205;-89
2021/08/20 11:53:38;;;;;;;;;1.50;1.50;;;;;24.19;48.12;101015.69;4999744;28;45447;-89
2021/08/20 11:56:13;;;;;;;;;1.00;1.00;;;;;24.07;48.19;100984.22;5016367;28;45452;-85
2021/08/20 11:58:40;;;;;;;;;3.00;3.00;;;;;24.33;48.35;101022.03;5000141;28;47408;-89
2021/08/20 12:01:10;;;;;;;;;3.25;2.75;;;;;24.08;48.32;100981.31;5014962;28;45395;-89
2021/08/20 12:03:43;;;;;;;;;3.00;3.00;;;;;24.45;48.46;101030.44;5004440;28;45710;-89
2021/08/20 12:06:10;;;;;;;;;2.00;2.00;;;;;24.34;48.13;101010.31;5039508;28;45658;-88
2021/08/20 12:08:36;;;;;;;;;2.50;2.00;;;;;24.37;47.81;101017.97;5023861;28;47239;-87
2021/08/20 12:11:03;;;;;;;;;1.25;1.25;;;;;24.22;47.76;100980.50;5023858;28;46881;-88
2021/08/20 12:13:28;;;;;;;;;3.00;2.75;;;;;24.24;47.76;100981.13;5023128;28;45981;-89
2021/08/20 12:15:54;;;;;;;;;2.00;2.00;;;;;24.21;47.65;100970.81;5023145;28;45536;-90
2021/08/20 12:18:25;;;;;;;;;3.50;3.50;;;;;24.41;47.85;100989.75;5048791;28;46911;-88
2021/08/20 12:20:52;;;;;;;;;4.50;4.00;;;;;24.55;48.09;101006.81;5038420;28;47209;-88
2021/08/20 12:23:18;;;;;;;;;4.00;3.75;;;;;24.71;47.43;101025.34;5039744;28;45582;-84
2021/08/20 12:25:45;;;;;;;;;2.25;2.25;;;;;24.68;47.02;101017.66;5036376;28;45343;-87
2021/08/20 12:28:14;;;;;;;;;2.25;2.25;;;;;24.55;47.67;100996.13;5033635;28;47760;-88
2021/08/20 12:30:41;;;;;;;;;3.00;3.00;;;;;24.61;47.11;100987.31;5052693;28;45229;-88
2021/08/20 12:33:07;;;;;;;;;2.75;2.75;;;;;24.89;47.39;101030.28;5051150;28;45602;-89
2021/08/20 12:35:33;;;;;;;;;2.00;2.00;;;;;24.95;47.25;101034.88;5043198;28;45547;-88